sensor_id;sensor_type;location;lat;lon;timestamp;temperature;humidity
17202;DHT22;8717;53.588;10.176;2023-04-03T00:02:00;-1.30;99.90
17202;DHT22;8717;53.588;10.176;2023-04-03T00:04:27;-1.30;99.90
17202;DHT22;8717;53.588;10.176;2023-04-03T00:06:55;-1.30;99.90
17202;DHT22;8717;53.588;10.176;2023-04-03T00:09:22;-1.40;99.90
17202;DHT22;8717;53.588;10.176;2023-04-03T00:11:49;-1.40;99.90
17202;DHT22;8717;53.588;10.176;2023-04-03T00:14:16;-1.40;99.90
17202;DHT22;8717;53.588;10.176;2023-04-03T00:16:42;-1.50;99.90
17202;DHT22;8717;53.588;10.176;2023-04-03T00:19:09;-1.40;99.90
17202;DHT22;8717;53.588;10.176;2023-04-03T00:21:38;-1.50;99.90
17202;DHT22;8717;53.588;10.176;2023-04-03T00:24:08;-1.50;99.90
17202;DHT22;8717;53.588;10.176;2023-04-03T00:26:35;-1.50;99.90
17202;DHT22;8717;53.588;10.176;2023-04-03T00:29:02;-1.50;99.90
17202;DHT22;8717;53.588;10.176;2023-04-03T00:31:28;-1.60;99.90
17202;DHT22;8717;53.588;10.176;2023-04-03T00:33:55;-1.60;99.90
17202;DHT22;8717;53.588;10.176;2023-04-03T00:36:22;-1.60;99.90
17202;DHT22;8717;53.588;10.176;2023-04-03T00:38:49;-1.60;99.90
17202;DHT22;8717;53.588;10.176;2023-04-03T00:41:17;-1.70;99.90
17202;DHT22;8717;53.588;10.176;2023-04-03T00:43:44;-1.70;99.90
17202;DHT22;8717;53.588;10.176;2023-04-03T00:48:40;-1.70;99.90
17202;DHT22;8717;53.588;10.176;2023-04-03T00:51:10;-1.70;99.90
17202;DHT22;8717;53.588;10.176;2023-04-03T00:53:40;-1.80;99.90
17202;DHT22;8717;53.588;10.176;2023-04-03T00:56:10;-1.80;99.90
17202;DHT22;8717;53.588;10.176;2023-04-03T00:58:42;-1.80;99.90
17202;DHT22;8717;53.588;10.176;2023-04-03T01:01:15;-1.80;99.90
17202;DHT22;8717;53.588;10.176;2023-04-03T01:03:42;-1.80;99.90
17202;DHT22;8717;53.588;10.176;2023-04-03T01:06:10;-1.80;99.90
17202;DHT22;8717;53.588;10.176;2023-04-03T01:08:37;-1.80;99.90
17202;DHT22;8717;53.588;10.176;2023-04-03T01:11:04;-1.80;99.90
17202;DHT22;8717;53.588;10.176;2023-04-03T01:13:32;-1.80;99.90
17202;DHT22;8717;53.588;10.176;2023-04-03T01:16:02;-1.80;99.90
17202;DHT22;8717;53.588;10.176;2023-04-03T01:18:31;-1.80;99.90
17202;DHT22;8717;53.588;10.176;2023-04-03T01:21:18;-1.90;99.90
17202;DHT22;8717;53.588;10.176;2023-04-03T01:24:07;-1.90;99.90
17202;DHT22;8717;53.588;10.176;2023-04-03T01:26:35;-1.90;99.90
17202;DHT22;8717;53.588;10.176;2023-04-03T01:29:03;-1.90;99.90
17202;DHT22;8717;53.588;10.176;2023-04-03T01:31:42;-1.90;99.90
17202;DHT22;8717;53.588;10.176;2023-04-03T01:34:10;-1.90;99.90
17202;DHT22;8717;53.588;10.176;2023-04-03T01:36:37;-1.90;99.90
17202;DHT22;8717;53.588;10.176;2023-04-03T01:39:04;-1.90;99.90
17202;DHT22;8717;53.588;10.176;2023-04-03T01:41:31;-1.90;99.90
17202;DHT22;8717;53.588;10.176;2023-04-03T01:44:07;-2.00;99.90
17202;DHT22;8717;53.588;10.176;2023-04-03T01:46:34;-2.00;99.90
17202;DHT22;8717;53.588;10.176;2023-04-03T01:49:03;-2.00;99.90
17202;DHT22;8717;53.588;10.176;2023-04-03T01:51:30;-2.00;99.90
17202;DHT22;8717;53.588;10.176;2023-04-03T01:53:57;-2.00;99.90
17202;DHT22;8717;53.588;10.176;2023-04-03T01:56:23;-2.00;99.90
17202;DHT22;8717;53.588;10.176;2023-04-03T01:58:50;-2.00;99.90
17202;DHT22;8717;53.588;10.176;2023-04-03T02:01:17;-2.00;99.90
17202;DHT22;8717;53.588;10.176;2023-04-03T02:03:44;-2.10;99.90
17202;DHT22;8717;53.588;10.176;2023-04-03T02:06:12;-2.10;99.90
17202;DHT22;8717;53.588;10.176;2023-04-03T02:08:40;-2.00;99.90
17202;DHT22;8717;53.588;10.176;2023-04-03T02:11:08;-2.10;99.90
17202;DHT22;8717;53.588;10.176;2023-04-03T02:13:34;-2.10;99.90
17202;DHT22;8717;53.588;10.176;2023-04-03T02:16:07;-2.10;99.90
17202;DHT22;8717;53.588;10.176;2023-04-03T02:21:26;-2.20;99.90
17202;DHT22;8717;53.588;10.176;2023-04-03T02:23:53;-2.20;99.90
17202;DHT22;8717;53.588;10.176;2023-04-03T02:28:47;-2.20;99.90
17202;DHT22;8717;53.588;10.176;2023-04-03T02:31:14;-2.20;99.90
17202;DHT22;8717;53.588;10.176;2023-04-03T02:33:43;-2.20;99.90
17202;DHT22;8717;53.588;10.176;2023-04-03T02:36:12;-2.30;99.90
17202;DHT22;8717;53.588;10.176;2023-04-03T02:38:44;-2.30;99.90
17202;DHT22;8717;53.588;10.176;2023-04-03T02:41:11;-2.30;99.90
17202;DHT22;8717;53.588;10.176;2023-04-03T02:43:38;-2.30;99.90
17202;DHT22;8717;53.588;10.176;2023-04-03T02:46:05;-2.30;99.90
17202;DHT22;8717;53.588;10.176;2023-04-03T02:48:32;-2.30;99.90
17202;DHT22;8717;53.588;10.176;2023-04-03T02:50:59;-2.30;99.90
17202;DHT22;8717;53.588;10.176;2023-04-03T02:53:26;-2.30;99.90
17202;DHT22;8717;53.588;10.176;2023-04-03T02:55:55;-2.30;99.90
17202;DHT22;8717;53.588;10.176;2023-04-03T02:58:21;-2.30;99.90
17202;DHT22;8717;53.588;10.176;2023-04-03T03:00:50;-2.30;99.90
17202;DHT22;8717;53.588;10.176;2023-04-03T03:03:17;-2.30;99.90
17202;DHT22;8717;53.588;10.176;2023-04-03T03:05:43;-2.30;99.90
17202;DHT22;8717;53.588;10.176;2023-04-03T03:08:11;-2.30;99.90
17202;DHT22;8717;53.588;10.176;2023-04-03T03:10:37;-2.40;99.90
17202;DHT22;8717;53.588;10.176;2023-04-03T03:13:05;-2.40;99.90
17202;DHT22;8717;53.588;10.176;2023-04-03T03:15:32;-2.40;99.90
17202;DHT22;8717;53.588;10.176;2023-04-03T03:17:59;-2.40;99.90
17202;DHT22;8717;53.588;10.176;2023-04-03T03:20:26;-2.40;99.90
17202;DHT22;8717;53.588;10.176;2023-04-03T03:22:53;-2.40;99.90
17202;DHT22;8717;53.588;10.176;2023-04-03T03:25:20;-2.40;99.90
17202;DHT22;8717;53.588;10.176;2023-04-03T03:27:47;-2.40;99.90
17202;DHT22;8717;53.588;10.176;2023-04-03T03:30:15;-2.40;99.90
17202;DHT22;8717;53.588;10.176;2023-04-03T03:32:42;-2.40;99.90
17202;DHT22;8717;53.588;10.176;2023-04-03T03:35:09;-2.40;99.90
17202;DHT22;8717;53.588;10.176;2023-04-03T03:37:36;-2.40;99.90
17202;DHT22;8717;53.588;10.176;2023-04-03T03:40:03;-2.40;99.90
17202;DHT22;8717;53.588;10.176;2023-04-03T03:42:31;-2.40;99.90
17202;DHT22;8717;53.588;10.176;2023-04-03T03:44:58;-2.40;99.90
17202;DHT22;8717;53.588;10.176;2023-04-03T03:47:26;-2.40;99.90
17202;DHT22;8717;53.588;10.176;2023-04-03T03:49:53;-2.40;99.90
17202;DHT22;8717;53.588;10.176;2023-04-03T03:52:20;-2.40;99.90
17202;DHT22;8717;53.588;10.176;2023-04-03T03:54:47;-2.40;99.90
17202;DHT22;8717;53.588;10.176;2023-04-03T03:57:15;-2.40;99.90
17202;DHT22;8717;53.588;10.176;2023-04-03T03:59:42;-2.40;99.90
17202;DHT22;8717;53.588;10.176;2023-04-03T04:02:10;-2.40;99.90
17202;DHT22;8717;53.588;10.176;2023-04-03T04:04:38;-2.40;99.90
17202;DHT22;8717;53.588;10.176;2023-04-03T04:07:05;-2.40;99.90
17202;DHT22;8717;53.588;10.176;2023-04-03T04:09:33;-2.50;99.90
17202;DHT22;8717;53.588;10.176;2023-04-03T04:12:00;-2.50;99.90
17202;DHT22;8717;53.588;10.176;2023-04-03T04:14:27;-2.50;99.90
17202;DHT22;8717;53.588;10.176;2023-04-03T04:16:55;-2.60;99.90
17202;DHT22;8717;53.588;10.176;2023-04-03T04:19:24;-2.60;99.90
17202;DHT22;8717;53.588;10.176;2023-04-03T04:21:52;-2.60;99.90
17202;DHT22;8717;53.588;10.176;2023-04-03T04:24:20;-2.70;99.90
17202;DHT22;8717;53.588;10.176;2023-04-03T04:26:50;-2.70;99.90
17202;DHT22;8717;53.588;10.176;2023-04-03T04:29:18;-2.70;99.90
17202;DHT22;8717;53.588;10.176;2023-04-03T04:31:48;-2.70;99.90
17202;DHT22;8717;53.588;10.176;2023-04-03T04:34:15;-2.70;99.90
17202;DHT22;8717;53.588;10.176;2023-04-03T04:36:42;-2.80;99.90
17202;DHT22;8717;53.588;10.176;2023-04-03T04:39:11;-2.80;99.90
17202;DHT22;8717;53.588;10.176;2023-04-03T04:41:39;-2.80;99.90
17202;DHT22;8717;53.588;10.176;2023-04-03T04:44:07;-2.90;99.90
17202;DHT22;8717;53.588;10.176;2023-04-03T04:46:35;-2.80;99.90
17202;DHT22;8717;53.588;10.176;2023-04-03T04:49:02;-2.90;99.90
17202;DHT22;8717;53.588;10.176;2023-04-03T04:51:30;-2.90;99.90
17202;DHT22;8717;53.588;10.176;2023-04-03T04:53:57;-2.90;99.90
17202;DHT22;8717;53.588;10.176;2023-04-03T04:56:25;-2.90;99.90
17202;DHT22;8717;53.588;10.176;2023-04-03T04:58:54;-2.90;99.90
17202;DHT22;8717;53.588;10.176;2023-04-03T05:01:22;-2.90;99.90
17202;DHT22;8717;53.588;10.176;2023-04-03T05:03:56;-2.90;99.90
17202;DHT22;8717;53.588;10.176;2023-04-03T05:06:24;-2.90;99.90
17202;DHT22;8717;53.588;10.176;2023-04-03T05:08:51;-2.90;99.90
17202;DHT22;8717;53.588;10.176;2023-04-03T05:11:19;-2.80;99.90
17202;DHT22;8717;53.588;10.176;2023-04-03T05:13:50;-2.80;99.90
17202;DHT22;8717;53.588;10.176;2023-04-03T05:16:17;-2.80;99.90
17202;DHT22;8717;53.588;10.176;2023-04-03T05:18:45;-2.80;99.90
17202;DHT22;8717;53.588;10.176;2023-04-03T05:21:17;-2.70;99.90
17202;DHT22;8717;53.588;10.176;2023-04-03T05:23:45;-2.80;99.90
17202;DHT22;8717;53.588;10.176;2023-04-03T05:26:12;-2.70;99.90
17202;DHT22;8717;53.588;10.176;2023-04-03T05:28:39;-2.70;99.90
17202;DHT22;8717;53.588;10.176;2023-04-03T05:31:09;-2.60;99.90
17202;DHT22;8717;53.588;10.176;2023-04-03T05:33:36;-2.60;99.90
17202;DHT22;8717;53.588;10.176;2023-04-03T05:36:06;-2.50;99.90
17202;DHT22;8717;53.588;10.176;2023-04-03T05:38:37;-2.50;99.90
17202;DHT22;8717;53.588;10.176;2023-04-03T05:41:04;-2.30;99.90
17202;DHT22;8717;53.588;10.176;2023-04-03T05:43:32;-2.20;99.90
17202;DHT22;8717;53.588;10.176;2023-04-03T05:46:00;-2.10;99.90
17202;DHT22;8717;53.588;10.176;2023-04-03T05:48:30;-1.90;99.90
17202;DHT22;8717;53.588;10.176;2023-04-03T05:50:57;-1.80;99.90
17202;DHT22;8717;53.588;10.176;2023-04-03T05:53:28;-1.60;99.90
17202;DHT22;8717;53.588;10.176;2023-04-03T05:55:57;-1.40;99.90
17202;DHT22;8717;53.588;10.176;2023-04-03T05:58:25;-1.20;99.90
17202;DHT22;8717;53.588;10.176;2023-04-03T06:00:52;-1.00;99.90
17202;DHT22;8717;53.588;10.176;2023-04-03T06:03:19;-0.70;99.90
17202;DHT22;8717;53.588;10.176;2023-04-03T06:05:47;-0.40;99.90
17202;DHT22;8717;53.588;10.176;2023-04-03T06:08:14;0.00;99.90
17202;DHT22;8717;53.588;10.176;2023-04-03T06:10:40;0.30;99.90
17202;DHT22;8717;53.588;10.176;2023-04-03T06:13:07;0.70;99.90
17202;DHT22;8717;53.588;10.176;2023-04-03T06:15:34;1.00;99.90
17202;DHT22;8717;53.588;10.176;2023-04-03T06:18:01;1.20;99.90
17202;DHT22;8717;53.588;10.176;2023-04-03T06:20:27;1.40;99.90
17202;DHT22;8717;53.588;10.176;2023-04-03T06:22:56;1.60;99.90
17202;DHT22;8717;53.588;10.176;2023-04-03T06:25:23;1.70;99.90
17202;DHT22;8717;53.588;10.176;2023-04-03T06:27:49;1.90;99.90
17202;DHT22;8717;53.588;10.176;2023-04-03T06:30:16;2.10;99.90
17202;DHT22;8717;53.588;10.176;2023-04-03T06:32:43;2.20;99.90
17202;DHT22;8717;53.588;10.176;2023-04-03T06:35:10;2.20;99.90
17202;DHT22;8717;53.588;10.176;2023-04-03T06:37:36;2.30;99.90
17202;DHT22;8717;53.588;10.176;2023-04-03T06:40:06;2.30;99.90
17202;DHT22;8717;53.588;10.176;2023-04-03T06:42:33;2.20;99.90
17202;DHT22;8717;53.588;10.176;2023-04-03T06:45:08;2.20;99.90
17202;DHT22;8717;53.588;10.176;2023-04-03T06:47:36;2.20;99.90
17202;DHT22;8717;53.588;10.176;2023-04-03T06:50:04;2.30;99.90
17202;DHT22;8717;53.588;10.176;2023-04-03T06:52:32;2.30;99.90
17202;DHT22;8717;53.588;10.176;2023-04-03T06:54:59;2.30;99.90
17202;DHT22;8717;53.588;10.176;2023-04-03T06:57:27;2.30;99.90
17202;DHT22;8717;53.588;10.176;2023-04-03T06:59:53;2.40;99.90
17202;DHT22;8717;53.588;10.176;2023-04-03T07:02:21;2.40;99.90
17202;DHT22;8717;53.588;10.176;2023-04-03T07:04:48;2.50;99.90
17202;DHT22;8717;53.588;10.176;2023-04-03T07:07:14;2.60;99.90
17202;DHT22;8717;53.588;10.176;2023-04-03T07:09:43;2.70;99.90
17202;DHT22;8717;53.588;10.176;2023-04-03T07:12:09;2.70;99.90
17202;DHT22;8717;53.588;10.176;2023-04-03T07:14:37;2.80;99.90
17202;DHT22;8717;53.588;10.176;2023-04-03T07:17:04;2.90;99.90
17202;DHT22;8717;53.588;10.176;2023-04-03T07:19:31;2.90;99.90
17202;DHT22;8717;53.588;10.176;2023-04-03T07:21:58;2.90;99.90
17202;DHT22;8717;53.588;10.176;2023-04-03T07:24:25;3.00;99.90
17202;DHT22;8717;53.588;10.176;2023-04-03T07:26:52;3.10;99.90
17202;DHT22;8717;53.588;10.176;2023-04-03T07:29:19;3.10;99.90
17202;DHT22;8717;53.588;10.176;2023-04-03T07:31:48;3.20;99.90
17202;DHT22;8717;53.588;10.176;2023-04-03T07:34:15;3.20;99.90
17202;DHT22;8717;53.588;10.176;2023-04-03T07:36:41;3.30;99.90
17202;DHT22;8717;53.588;10.176;2023-04-03T07:39:08;3.30;99.90
17202;DHT22;8717;53.588;10.176;2023-04-03T07:41:35;3.30;99.90
17202;DHT22;8717;53.588;10.176;2023-04-03T07:44:01;3.30;99.90
17202;DHT22;8717;53.588;10.176;2023-04-03T07:46:30;3.30;99.90
17202;DHT22;8717;53.588;10.176;2023-04-03T07:48:58;3.30;99.90
17202;DHT22;8717;53.588;10.176;2023-04-03T07:51:24;3.30;99.90
17202;DHT22;8717;53.588;10.176;2023-04-03T07:53:51;3.40;99.90
17202;DHT22;8717;53.588;10.176;2023-04-03T07:56:18;3.50;99.90
17202;DHT22;8717;53.588;10.176;2023-04-03T07:58:46;3.80;99.90
17202;DHT22;8717;53.588;10.176;2023-04-03T08:01:12;4.30;99.90
17202;DHT22;8717;53.588;10.176;2023-04-03T08:03:39;4.90;99.90
17202;DHT22;8717;53.588;10.176;2023-04-03T08:06:08;5.60;99.90
17202;DHT22;8717;53.588;10.176;2023-04-03T08:08:35;6.30;99.90
17202;DHT22;8717;53.588;10.176;2023-04-03T08:11:02;7.00;99.90
17202;DHT22;8717;53.588;10.176;2023-04-03T08:13:31;7.70;99.90
17202;DHT22;8717;53.588;10.176;2023-04-03T08:16:07;8.40;99.90
17202;DHT22;8717;53.588;10.176;2023-04-03T08:18:34;9.10;99.90
17202;DHT22;8717;53.588;10.176;2023-04-03T08:21:01;9.90;99.80
17202;DHT22;8717;53.588;10.176;2023-04-03T08:23:32;10.40;98.50
17202;DHT22;8717;53.588;10.176;2023-04-03T08:25:59;10.80;97.30
17202;DHT22;8717;53.588;10.176;2023-04-03T08:28:26;11.20;96.90
17202;DHT22;8717;53.588;10.176;2023-04-03T08:30:52;11.50;96.10
17202;DHT22;8717;53.588;10.176;2023-04-03T08:33:19;11.90;95.90
17202;DHT22;8717;53.588;10.176;2023-04-03T08:35:46;12.40;95.40
17202;DHT22;8717;53.588;10.176;2023-04-03T08:38:12;12.80;95.10
17202;DHT22;8717;53.588;10.176;2023-04-03T08:40:41;13.40;93.90
17202;DHT22;8717;53.588;10.176;2023-04-03T08:43:27;13.90;93.30
17202;DHT22;8717;53.588;10.176;2023-04-03T08:46:01;14.40;89.10
17202;DHT22;8717;53.588;10.176;2023-04-03T08:48:33;14.90;89.80
17202;DHT22;8717;53.588;10.176;2023-04-03T08:51:04;15.40;88.90
17202;DHT22;8717;53.588;10.176;2023-04-03T08:53:34;15.70;85.40
17202;DHT22;8717;53.588;10.176;2023-04-03T08:56:07;16.10;81.10
17202;DHT22;8717;53.588;10.176;2023-04-03T08:58:41;16.40;80.70
17202;DHT22;8717;53.588;10.176;2023-04-03T09:01:17;16.70;78.70
17202;DHT22;8717;53.588;10.176;2023-04-03T09:03:46;17.00;72.70
17202;DHT22;8717;53.588;10.176;2023-04-03T09:06:15;17.00;73.90
17202;DHT22;8717;53.588;10.176;2023-04-03T09:08:45;17.10;70.70
17202;DHT22;8717;53.588;10.176;2023-04-03T09:11:20;17.10;69.70
17202;DHT22;8717;53.588;10.176;2023-04-03T09:13:53;17.10;70.20
17202;DHT22;8717;53.588;10.176;2023-04-03T09:16:27;17.30;69.10
17202;DHT22;8717;53.588;10.176;2023-04-03T09:19:01;17.50;70.30
17202;DHT22;8717;53.588;10.176;2023-04-03T09:21:37;17.80;68.50
17202;DHT22;8717;53.588;10.176;2023-04-03T09:24:09;18.10;66.50
17202;DHT22;8717;53.588;10.176;2023-04-03T09:26:42;18.20;62.00
17202;DHT22;8717;53.588;10.176;2023-04-03T09:29:14;18.10;63.20
17202;DHT22;8717;53.588;10.176;2023-04-03T09:31:44;17.90;59.30
17202;DHT22;8717;53.588;10.176;2023-04-03T09:34:18;17.90;62.70
17202;DHT22;8717;53.588;10.176;2023-04-03T09:36:48;17.80;56.50
17202;DHT22;8717;53.588;10.176;2023-04-03T09:39:18;17.80;59.70
17202;DHT22;8717;53.588;10.176;2023-04-03T09:41:58;17.90;61.20
17202;DHT22;8717;53.588;10.176;2023-04-03T09:44:28;18.00;60.10
17202;DHT22;8717;53.588;10.176;2023-04-03T09:46:55;18.10;61.90
17202;DHT22;8717;53.588;10.176;2023-04-03T09:49:22;18.20;61.10
17202;DHT22;8717;53.588;10.176;2023-04-03T09:51:48;18.20;53.60
17202;DHT22;8717;53.588;10.176;2023-04-03T09:54:33;18.10;57.60
17202;DHT22;8717;53.588;10.176;2023-04-03T09:57:08;18.00;56.20
17202;DHT22;8717;53.588;10.176;2023-04-03T09:59:37;17.90;55.30
17202;DHT22;8717;53.588;10.176;2023-04-03T10:02:22;17.80;53.70
17202;DHT22;8717;53.588;10.176;2023-04-03T10:04:49;17.60;54.90
17202;DHT22;8717;53.588;10.176;2023-04-03T10:07:28;17.40;56.40
17202;DHT22;8717;53.588;10.176;2023-04-03T10:09:56;17.30;53.80
17202;DHT22;8717;53.588;10.176;2023-04-03T10:12:24;17.20;55.30
17202;DHT22;8717;53.588;10.176;2023-04-03T10:14:55;17.10;54.70
17202;DHT22;8717;53.588;10.176;2023-04-03T10:17:31;17.10;55.50
17202;DHT22;8717;53.588;10.176;2023-04-03T10:20:07;17.20;55.70
17202;DHT22;8717;53.588;10.176;2023-04-03T10:22:42;17.20;54.20
17202;DHT22;8717;53.588;10.176;2023-04-03T10:25:19;17.20;55.10
17202;DHT22;8717;53.588;10.176;2023-04-03T10:27:55;17.20;55.30
17202;DHT22;8717;53.588;10.176;2023-04-03T10:30:32;17.30;55.20
17202;DHT22;8717;53.588;10.176;2023-04-03T10:33:11;17.50;53.40
17202;DHT22;8717;53.588;10.176;2023-04-03T10:35:50;17.50;53.80
17202;DHT22;8717;53.588;10.176;2023-04-03T10:38:23;17.50;55.70
17202;DHT22;8717;53.588;10.176;2023-04-03T10:40:59;17.60;55.30
17202;DHT22;8717;53.588;10.176;2023-04-03T10:43:33;17.60;54.60
17202;DHT22;8717;53.588;10.176;2023-04-03T10:46:07;17.60;53.50
17202;DHT22;8717;53.588;10.176;2023-04-03T10:48:43;17.70;55.60
17202;DHT22;8717;53.588;10.176;2023-04-03T10:51:19;17.70;52.60
17202;DHT22;8717;53.588;10.176;2023-04-03T10:53:55;17.60;51.50
17202;DHT22;8717;53.588;10.176;2023-04-03T10:56:30;17.40;51.40
17202;DHT22;8717;53.588;10.176;2023-04-03T10:59:05;17.20;51.70
17202;DHT22;8717;53.588;10.176;2023-04-03T11:01:36;17.00;53.40
17202;DHT22;8717;53.588;10.176;2023-04-03T11:04:06;16.90;54.10
17202;DHT22;8717;53.588;10.176;2023-04-03T11:06:37;17.00;54.50
17202;DHT22;8717;53.588;10.176;2023-04-03T11:09:15;17.00;50.60
17202;DHT22;8717;53.588;10.176;2023-04-03T11:11:43;16.90;52.70
17202;DHT22;8717;53.588;10.176;2023-04-03T11:14:19;16.80;51.80
17202;DHT22;8717;53.588;10.176;2023-04-03T11:16:54;16.40;50.90
17202;DHT22;8717;53.588;10.176;2023-04-03T11:19:32;15.90;50.40
17202;DHT22;8717;53.588;10.176;2023-04-03T11:22:04;15.20;50.60
17202;DHT22;8717;53.588;10.176;2023-04-03T11:24:38;14.60;52.20
17202;DHT22;8717;53.588;10.176;2023-04-03T11:27:13;14.00;52.60
17202;DHT22;8717;53.588;10.176;2023-04-03T11:29:44;13.40;52.70
17202;DHT22;8717;53.588;10.176;2023-04-03T11:32:27;12.90;53.60
17202;DHT22;8717;53.588;10.176;2023-04-03T11:35:01;12.60;52.60
17202;DHT22;8717;53.588;10.176;2023-04-03T11:37:33;12.20;53.60
17202;DHT22;8717;53.588;10.176;2023-04-03T11:40:06;12.10;54.50
17202;DHT22;8717;53.588;10.176;2023-04-03T11:42:39;12.00;55.10
17202;DHT22;8717;53.588;10.176;2023-04-03T11:45:33;12.10;54.20
17202;DHT22;8717;53.588;10.176;2023-04-03T11:48:02;12.10;54.20
17202;DHT22;8717;53.588;10.176;2023-04-03T11:50:43;12.20;56.30
17202;DHT22;8717;53.588;10.176;2023-04-03T11:53:34;12.40;55.90
17202;DHT22;8717;53.588;10.176;2023-04-03T11:56:31;12.60;55.60
17202;DHT22;8717;53.588;10.176;2023-04-03T11:59:19;12.90;55.70
17202;DHT22;8717;53.588;10.176;2023-04-03T12:01:50;13.10;55.00
17202;DHT22;8717;53.588;10.176;2023-04-03T12:04:21;13.40;56.30
17202;DHT22;8717;53.588;10.176;2023-04-03T12:09:57;13.60;54.10
17202;DHT22;8717;53.588;10.176;2023-04-03T12:12:33;13.60;54.50
17202;DHT22;8717;53.588;10.176;2023-04-03T12:18:43;13.20;53.10
17202;DHT22;8717;53.588;10.176;2023-04-03T12:21:11;12.90;52.90
17202;DHT22;8717;53.588;10.176;2023-04-03T12:24:03;12.60;54.30
17202;DHT22;8717;53.588;10.176;2023-04-03T12:26:35;12.30;55.00
17202;DHT22;8717;53.588;10.176;2023-04-03T12:29:10;12.10;55.10
17202;DHT22;8717;53.588;10.176;2023-04-03T12:31:45;12.10;55.90
17202;DHT22;8717;53.588;10.176;2023-04-03T12:34:26;12.20;55.00
17202;DHT22;8717;53.588;10.176;2023-04-03T12:37:08;12.30;54.80
17202;DHT22;8717;53.588;10.176;2023-04-03T12:40:01;12.30;55.10
17202;DHT22;8717;53.588;10.176;2023-04-03T12:43:05;12.30;54.90
17202;DHT22;8717;53.588;10.176;2023-04-03T12:45:42;12.20;53.80
17202;DHT22;8717;53.588;10.176;2023-04-03T12:48:14;12.10;54.60
17202;DHT22;8717;53.588;10.176;2023-04-03T12:50:45;12.00;54.20
17202;DHT22;8717;53.588;10.176;2023-04-03T12:53:14;11.90;55.30
17202;DHT22;8717;53.588;10.176;2023-04-03T12:55:42;11.90;55.60
17202;DHT22;8717;53.588;10.176;2023-04-03T12:58:17;11.80;54.90
17202;DHT22;8717;53.588;10.176;2023-04-03T13:00:59;11.70;56.10
17202;DHT22;8717;53.588;10.176;2023-04-03T13:03:26;11.60;53.10
17202;DHT22;8717;53.588;10.176;2023-04-03T13:05:58;11.50;54.80
17202;DHT22;8717;53.588;10.176;2023-04-03T13:08:26;11.30;53.10
17202;DHT22;8717;53.588;10.176;2023-04-03T13:10:55;11.30;55.00
17202;DHT22;8717;53.588;10.176;2023-04-03T13:13:23;11.20;55.60
17202;DHT22;8717;53.588;10.176;2023-04-03T13:15:52;11.30;55.10
17202;DHT22;8717;53.588;10.176;2023-04-03T13:18:24;11.30;55.50
17202;DHT22;8717;53.588;10.176;2023-04-03T13:20:52;11.40;53.50
17202;DHT22;8717;53.588;10.176;2023-04-03T13:23:21;11.50;54.90
17202;DHT22;8717;53.588;10.176;2023-04-03T13:25:49;11.50;54.00
17202;DHT22;8717;53.588;10.176;2023-04-03T13:28:19;11.50;55.00
17202;DHT22;8717;53.588;10.176;2023-04-03T13:30:56;11.40;54.30
17202;DHT22;8717;53.588;10.176;2023-04-03T13:33:27;11.30;53.60
17202;DHT22;8717;53.588;10.176;2023-04-03T13:35:56;11.20;54.00
17202;DHT22;8717;53.588;10.176;2023-04-03T13:38:26;11.10;53.80
17202;DHT22;8717;53.588;10.176;2023-04-03T13:40:55;11.00;53.40
17202;DHT22;8717;53.588;10.176;2023-04-03T13:43:28;11.00;54.60
17202;DHT22;8717;53.588;10.176;2023-04-03T13:46:01;11.00;54.00
17202;DHT22;8717;53.588;10.176;2023-04-03T13:48:36;11.00;54.60
17202;DHT22;8717;53.588;10.176;2023-04-03T13:51:05;11.00;54.70
17202;DHT22;8717;53.588;10.176;2023-04-03T13:53:42;11.10;53.30
17202;DHT22;8717;53.588;10.176;2023-04-03T13:56:16;11.00;53.20
17202;DHT22;8717;53.588;10.176;2023-04-03T13:58:54;11.00;54.60
17202;DHT22;8717;53.588;10.176;2023-04-03T14:01:23;10.80;52.50
17202;DHT22;8717;53.588;10.176;2023-04-03T14:03:54;10.60;53.80
17202;DHT22;8717;53.588;10.176;2023-04-03T14:06:22;10.60;53.00
17202;DHT22;8717;53.588;10.176;2023-04-03T14:08:51;10.60;54.60
17202;DHT22;8717;53.588;10.176;2023-04-03T14:11:21;10.60;54.60
17202;DHT22;8717;53.588;10.176;2023-04-03T14:13:49;10.60;53.20
17202;DHT22;8717;53.588;10.176;2023-04-03T14:16:18;10.60;54.10
17202;DHT22;8717;53.588;10.176;2023-04-03T14:18:46;10.60;52.90
17202;DHT22;8717;53.588;10.176;2023-04-03T14:21:15;10.60;52.60
17202;DHT22;8717;53.588;10.176;2023-04-03T14:23:42;10.60;53.30
17202;DHT22;8717;53.588;10.176;2023-04-03T14:26:12;10.50;53.30
17202;DHT22;8717;53.588;10.176;2023-04-03T14:28:39;10.50;53.20
17202;DHT22;8717;53.588;10.176;2023-04-03T14:31:07;10.40;53.10
17202;DHT22;8717;53.588;10.176;2023-04-03T14:33:33;10.40;52.20
17202;DHT22;8717;53.588;10.176;2023-04-03T14:36:01;10.30;53.40
17202;DHT22;8717;53.588;10.176;2023-04-03T14:38:30;10.30;52.70
17202;DHT22;8717;53.588;10.176;2023-04-03T14:40:58;10.20;53.50
17202;DHT22;8717;53.588;10.176;2023-04-03T14:43:26;10.10;53.50
17202;DHT22;8717;53.588;10.176;2023-04-03T14:45:53;10.10;54.70
17202;DHT22;8717;53.588;10.176;2023-04-03T14:48:23;10.00;55.10
17202;DHT22;8717;53.588;10.176;2023-04-03T14:50:51;9.90;54.40
17202;DHT22;8717;53.588;10.176;2023-04-03T14:53:20;9.90;55.10
17202;DHT22;8717;53.588;10.176;2023-04-03T14:55:50;9.90;55.70
17202;DHT22;8717;53.588;10.176;2023-04-03T14:58:19;9.90;55.50
17202;DHT22;8717;53.588;10.176;2023-04-03T15:00:47;9.90;55.50
17202;DHT22;8717;53.588;10.176;2023-04-03T15:03:16;9.80;55.70
17202;DHT22;8717;53.588;10.176;2023-04-03T15:05:44;9.70;56.20
17202;DHT22;8717;53.588;10.176;2023-04-03T15:08:19;9.60;55.40
17202;DHT22;8717;53.588;10.176;2023-04-03T15:10:48;9.50;55.60
17202;DHT22;8717;53.588;10.176;2023-04-03T15:13:15;9.40;55.30
17202;DHT22;8717;53.588;10.176;2023-04-03T15:15:42;9.40;56.00
17202;DHT22;8717;53.588;10.176;2023-04-03T15:18:15;9.20;55.10
17202;DHT22;8717;53.588;10.176;2023-04-03T15:20:43;9.10;55.40
17202;DHT22;8717;53.588;10.176;2023-04-03T15:23:11;8.90;55.50
17202;DHT22;8717;53.588;10.176;2023-04-03T15:25:38;8.80;56.80
17202;DHT22;8717;53.588;10.176;2023-04-03T15:28:05;8.70;57.30
17202;DHT22;8717;53.588;10.176;2023-04-03T15:30:32;8.70;57.60
17202;DHT22;8717;53.588;10.176;2023-04-03T15:33:00;8.80;58.40
17202;DHT22;8717;53.588;10.176;2023-04-03T15:35:28;8.80;58.10
17202;DHT22;8717;53.588;10.176;2023-04-03T15:37:55;8.80;58.50
17202;DHT22;8717;53.588;10.176;2023-04-03T15:40:21;8.80;58.40
17202;DHT22;8717;53.588;10.176;2023-04-03T15:42:48;8.90;58.10
17202;DHT22;8717;53.588;10.176;2023-04-03T15:45:15;8.80;58.30
17202;DHT22;8717;53.588;10.176;2023-04-03T15:47:42;8.80;58.20
17202;DHT22;8717;53.588;10.176;2023-04-03T15:50:09;8.70;58.70
17202;DHT22;8717;53.588;10.176;2023-04-03T15:55:12;8.50;59.40
17202;DHT22;8717;53.588;10.176;2023-04-03T15:57:39;8.40;59.50
17202;DHT22;8717;53.588;10.176;2023-04-03T16:00:07;8.40;60.00
17202;DHT22;8717;53.588;10.176;2023-04-03T16:02:34;8.40;60.10
17202;DHT22;8717;53.588;10.176;2023-04-03T16:05:01;8.40;59.50
17202;DHT22;8717;53.588;10.176;2023-04-03T16:10:04;8.30;59.40
17202;DHT22;8717;53.588;10.176;2023-04-03T16:12:32;8.30;59.90